createdAt,value
2018-06-09T00:01:50.112Z,3.97
2018-06-09T00:04:18.254Z,4.50
2018-06-09T00:06:46.455Z,3.43
2018-06-09T00:09:14.660Z,3.40
2018-06-09T00:11:42.879Z,2.93
2018-06-09T00:14:17.955Z,3.90
2018-06-09T00:16:46.157Z,3.60
2018-06-09T00:19:14.412Z,3.43
2018-06-09T00:21:42.598Z,4.40
2018-06-09T00:24:10.864Z,3.60
2018-06-09T00:26:39.166Z,3.37
2018-06-09T00:29:07.388Z,3.60
2018-06-09T00:31:35.908Z,3.50
2018-06-09T00:34:04.136Z,3.57
2018-06-09T00:36:32.325Z,4.07
2018-06-09T00:39:00.530Z,3.10
2018-06-09T00:41:28.899Z,3.60
2018-06-09T00:43:57.073Z,3.50
2018-06-09T00:46:25.323Z,3.50
2018-06-09T00:48:53.468Z,3.53
2018-06-09T00:51:21.651Z,4.83
2018-06-09T00:53:49.808Z,5.03
2018-06-09T00:56:29.347Z,4.40
2018-06-09T00:58:57.565Z,3.83
2018-06-09T01:01:25.788Z,5.00
2018-06-09T01:03:53.959Z,4.03
2018-06-09T01:06:22.149Z,3.87
2018-06-09T01:08:50.428Z,4.07
2018-06-09T01:11:18.668Z,3.70
2018-06-09T01:13:46.924Z,3.93
2018-06-09T01:16:15.140Z,3.80
2018-06-09T01:18:43.344Z,3.67
2018-06-09T01:21:11.590Z,3.97
2018-06-09T01:23:39.810Z,3.77
2018-06-09T01:26:08.013Z,4.00
2018-06-09T01:28:36.261Z,4.00
2018-06-09T01:31:04.459Z,4.53
2018-06-09T01:33:33.208Z,5.17
2018-06-09T01:36:01.377Z,4.40
2018-06-09T01:38:29.605Z,4.10
2018-06-09T01:40:58.114Z,4.20
2018-06-09T01:43:26.347Z,3.83
2018-06-09T01:45:54.543Z,3.80
2018-06-09T01:48:22.742Z,3.70
2018-06-09T01:50:51.027Z,3.27
2018-06-09T01:53:19.214Z,4.10
2018-06-09T01:55:47.461Z,3.70
2018-06-09T01:58:15.797Z,3.63
2018-06-09T02:00:43.995Z,4.10
2018-06-09T02:03:12.214Z,4.33
2018-06-09T02:05:40.392Z,3.70
2018-06-09T02:08:08.615Z,3.73
2018-06-09T02:10:37.047Z,4.40
2018-06-09T02:13:05.444Z,4.30
2018-06-09T02:15:33.701Z,3.70
2018-06-09T02:18:01.847Z,2.97
2018-06-09T02:20:30.032Z,3.97
2018-06-09T02:22:58.247Z,3.23
2018-06-09T02:25:26.460Z,4.27
2018-06-09T02:27:54.653Z,3.70
2018-06-09T02:30:22.871Z,3.80
2018-06-09T02:32:51.050Z,3.53
2018-06-09T02:35:19.282Z,3.40
2018-06-09T02:37:47.590Z,3.93
2018-06-09T02:40:15.848Z,4.00
2018-06-09T02:42:43.988Z,3.63
2018-06-09T02:45:12.444Z,4.57
2018-06-09T02:47:41.015Z,3.60
2018-06-09T02:50:09.420Z,3.80
2018-06-09T02:52:37.968Z,3.90
2018-06-09T02:55:06.173Z,4.07
2018-06-09T02:57:34.383Z,3.23
2018-06-09T03:00:02.591Z,3.70
2018-06-09T03:02:30.820Z,4.03
2018-06-09T03:04:58.984Z,3.40
2018-06-09T03:07:27.245Z,4.20
2018-06-09T03:09:55.521Z,4.33
2018-06-09T03:12:23.733Z,4.10
2018-06-09T03:14:51.902Z,4.13
2018-06-09T03:17:20.133Z,3.77
2018-06-09T03:19:48.285Z,3.60
2018-06-09T03:22:16.512Z,3.57
2018-06-09T03:24:44.684Z,3.90
2018-06-09T03:27:12.868Z,4.40
2018-06-09T03:29:41.086Z,4.33
2018-06-09T03:32:09.372Z,5.10
2018-06-09T03:34:37.554Z,3.87
2018-06-09T03:37:05.763Z,3.80
2018-06-09T03:39:33.966Z,4.83
2018-06-09T03:42:02.472Z,5.00
2018-06-09T03:44:30.681Z,4.30
2018-06-09T03:46:58.932Z,4.60
2018-06-09T03:49:27.155Z,4.40
2018-06-09T03:51:55.407Z,4.30
2018-06-09T03:54:23.659Z,4.30
2018-06-09T03:56:52.230Z,4.40
2018-06-09T03:59:20.469Z,4.33
2018-06-09T04:01:48.723Z,4.70
2018-06-09T04:04:16.941Z,5.00
2018-06-09T04:06:45.114Z,4.40
2018-06-09T04:09:13.337Z,4.73
2018-06-09T04:11:41.539Z,5.40
2018-06-09T04:14:10.064Z,4.20
2018-06-09T04:16:38.356Z,3.63
2018-06-09T04:19:06.563Z,4.37
2018-06-09T04:21:34.755Z,3.63
2018-06-09T04:24:03.144Z,4.50
2018-06-09T04:26:31.359Z,3.87
2018-06-09T04:28:59.668Z,4.60
2018-06-09T04:31:27.909Z,4.33
2018-06-09T04:33:56.447Z,3.70
2018-06-09T04:36:24.667Z,4.00
2018-06-09T04:38:52.948Z,3.77
2018-06-09T04:41:21.144Z,3.73
2018-06-09T04:43:49.348Z,3.70
2018-06-09T04:46:17.503Z,4.27
2018-06-09T04:48:45.711Z,3.47
2018-06-09T04:51:13.925Z,4.03
2018-06-09T04:53:42.123Z,4.30
2018-06-09T04:56:10.313Z,3.63
2018-06-09T04:58:38.508Z,4.23
2018-06-09T05:01:06.747Z,3.77
2018-06-09T05:03:34.915Z,4.30
2018-06-09T05:06:03.182Z,3.70
2018-06-09T05:08:31.370Z,4.50
2018-06-09T05:10:59.997Z,4.23
2018-06-09T05:13:28.214Z,3.73
2018-06-09T05:15:56.729Z,3.53
2018-06-09T05:18:24.936Z,3.37
2018-06-09T05:20:53.455Z,3.50
2018-06-09T05:23:21.946Z,3.50
2018-06-09T05:25:50.187Z,3.43
2018-06-09T05:28:18.416Z,3.30
2018-06-09T05:30:46.706Z,3.53
2018-06-09T05:33:14.945Z,3.40
2018-06-09T05:35:43.161Z,3.60
2018-06-09T05:38:11.335Z,4.43
2018-06-09T05:40:39.591Z,5.00
2018-06-09T05:43:07.805Z,4.10
2018-06-09T05:45:36.291Z,5.53
2018-06-09T05:48:11.108Z,3.30
2018-06-09T05:50:39.317Z,3.80
2018-06-09T05:53:07.581Z,3.90
2018-06-09T05:55:35.855Z,3.27
2018-06-09T05:58:04.153Z,3.17
2018-06-09T06:00:32.796Z,4.77
2018-06-09T06:03:00.991Z,4.10
2018-06-09T06:05:29.210Z,4.73
2018-06-09T06:07:57.440Z,3.80
2018-06-09T06:10:25.697Z,3.90
2018-06-09T06:12:53.964Z,4.00
2018-06-09T06:15:22.425Z,3.60
2018-06-09T06:17:50.649Z,8.60
2018-06-09T06:20:18.880Z,4.00
2018-06-09T06:22:47.137Z,3.57
2018-06-09T06:25:15.360Z,3.73
2018-06-09T06:27:43.870Z,3.63
2018-06-09T06:30:12.117Z,4.50
2018-06-09T06:32:40.816Z,3.53
2018-06-09T06:35:09.376Z,5.80
2018-06-09T06:37:37.635Z,4.40
2018-06-09T06:40:05.881Z,3.70
2018-06-09T06:42:34.181Z,5.30
2018-06-09T06:45:02.793Z,6.20
2018-06-09T06:47:31.023Z,3.73
2018-06-09T06:49:59.321Z,5.53
2018-06-09T06:52:27.544Z,3.70
2018-06-09T06:54:55.742Z,5.17
2018-06-09T06:57:24.066Z,3.97
2018-06-09T06:59:52.261Z,3.63
2018-06-09T07:02:20.447Z,3.80
2018-06-09T07:04:48.651Z,4.10
2018-06-09T07:07:17.183Z,4.90
2018-06-09T07:09:45.502Z,59.87
2018-06-09T07:12:13.739Z,4.80
2018-06-09T07:14:41.983Z,3.60
2018-06-09T07:17:10.238Z,3.43
2018-06-09T07:19:38.478Z,3.77
2018-06-09T07:22:06.804Z,3.80
2018-06-09T07:24:35.029Z,3.60
2018-06-09T07:27:03.201Z,4.17
2018-06-09T07:29:31.777Z,3.50
2018-06-09T07:32:00.335Z,3.70
2018-06-09T07:34:28.492Z,3.33
2018-06-09T07:36:56.773Z,3.60
2018-06-09T07:39:25.083Z,4.13
2018-06-09T07:41:53.297Z,5.00
2018-06-09T07:44:21.788Z,3.37
2018-06-09T07:46:50.056Z,4.67
2018-06-09T07:49:18.256Z,4.93
2018-06-09T07:51:46.494Z,3.40
2018-06-09T07:54:14.690Z,4.53
2018-06-09T07:56:42.852Z,3.73
2018-06-09T07:59:11.456Z,6.13
2018-06-09T08:01:39.699Z,3.50
2018-06-09T08:04:07.928Z,4.10
2018-06-09T08:06:36.122Z,3.90
2018-06-09T08:09:05.649Z,3.50
2018-06-09T08:11:33.982Z,3.30
2018-06-09T08:14:02.271Z,3.63
2018-06-09T08:16:30.492Z,3.67
2018-06-09T08:18:58.672Z,3.50
2018-06-09T08:21:26.902Z,4.00
2018-06-09T08:23:55.101Z,3.93
2018-06-09T08:26:23.454Z,3.43
2018-06-09T08:28:51.635Z,3.60
2018-06-09T08:31:19.949Z,3.80
2018-06-09T08:33:48.160Z,3.60
2018-06-09T08:36:16.484Z,4.43
2018-06-09T08:38:44.648Z,4.33
2018-06-09T08:41:12.863Z,3.43
2018-06-09T08:43:41.103Z,3.33
2018-06-09T08:46:09.332Z,3.17
2018-06-09T08:48:37.607Z,3.00
2018-06-09T08:51:05.864Z,3.93
2018-06-09T08:53:34.148Z,3.47
2018-06-09T08:56:02.317Z,3.30
2018-06-09T08:58:30.504Z,3.13
2018-06-09T09:00:58.956Z,3.50
2018-06-09T09:03:27.182Z,3.23
2018-06-09T09:05:55.420Z,3.33
2018-06-09T09:08:23.579Z,3.53
2018-06-09T09:10:51.885Z,3.23
2018-06-09T09:13:20.154Z,3.70
2018-06-09T09:15:48.363Z,3.33
2018-06-09T09:18:16.594Z,3.90
2018-06-09T09:20:45.298Z,3.73
2018-06-09T09:23:13.526Z,3.47
2018-06-09T09:25:41.844Z,3.47
2018-06-09T09:28:10.052Z,3.47
2018-06-09T09:30:38.306Z,6.27
2018-06-09T09:33:06.583Z,3.97
2018-06-09T09:35:34.793Z,4.60
2018-06-09T09:38:03.047Z,3.93
2018-06-09T09:40:31.238Z,3.90
2018-06-09T09:42:59.423Z,3.20
2018-06-09T09:45:27.669Z,3.40
2018-06-09T09:47:56.048Z,7.40
2018-06-09T09:50:24.294Z,3.13
2018-06-09T09:52:52.561Z,3.50
2018-06-09T09:55:20.875Z,4.00
2018-06-09T09:58:00.774Z,3.50
2018-06-09T10:00:34.445Z,4.40
2018-06-09T10:03:02.648Z,4.63
2018-06-09T10:05:30.832Z,3.30
2018-06-09T10:07:59.057Z,3.93
2018-06-09T10:10:27.305Z,4.80
2018-06-09T10:12:55.486Z,4.13
2018-06-09T10:15:23.672Z,3.53
2018-06-09T10:17:51.898Z,3.67
2018-06-09T10:20:20.104Z,3.30
2018-06-09T10:22:48.267Z,3.50
2018-06-09T10:25:16.456Z,3.47
2018-06-09T10:27:44.713Z,2.87
2018-06-09T10:30:12.993Z,3.83
2018-06-09T10:32:41.211Z,3.00
2018-06-09T10:35:09.427Z,3.30
2018-06-09T10:37:37.641Z,2.47
2018-06-09T10:40:06.232Z,3.70
2018-06-09T10:42:34.445Z,3.30
2018-06-09T10:45:03.107Z,3.20
2018-06-09T10:47:31.352Z,3.33
2018-06-09T10:49:59.502Z,4.30
2018-06-09T10:52:27.776Z,2.83
2018-06-09T10:54:56.376Z,3.47
2018-06-09T10:57:24.713Z,3.37
2018-06-09T10:59:52.946Z,3.00
2018-06-09T11:02:21.124Z,3.03
2018-06-09T11:04:49.353Z,3.60
2018-06-09T11:07:17.520Z,3.30
2018-06-09T11:09:45.745Z,3.40
2018-06-09T11:12:13.968Z,3.50
2018-06-09T11:14:42.192Z,3.50
2018-06-09T11:17:10.438Z,3.77
2018-06-09T11:19:38.673Z,3.97
2018-06-09T11:22:06.879Z,3.00
2018-06-09T11:24:35.089Z,3.17
2018-06-09T11:27:03.255Z,3.13
2018-06-09T11:29:31.536Z,3.40
2018-06-09T11:32:00.181Z,3.53
2018-06-09T11:34:28.338Z,3.50
2018-06-09T11:36:56.583Z,3.50
2018-06-09T11:39:24.878Z,3.47
2018-06-09T11:41:53.077Z,3.07
2018-06-09T11:44:21.247Z,3.50
2018-06-09T11:46:49.503Z,2.97
2018-06-09T11:49:17.663Z,3.70
2018-06-09T11:51:45.811Z,3.27
2018-06-09T11:54:14.024Z,4.27
2018-06-09T11:56:42.256Z,4.70
2018-06-09T11:59:10.897Z,4.30
2018-06-09T12:01:39.128Z,3.87
2018-06-09T12:04:07.754Z,4.10
2018-06-09T12:06:35.948Z,3.73
2018-06-09T12:09:05.950Z,4.80
2018-06-09T12:11:34.132Z,3.70
2018-06-09T12:14:02.423Z,3.67
2018-06-09T12:16:31.011Z,3.97
2018-06-09T12:18:59.190Z,4.40
2018-06-09T12:21:27.446Z,4.20
2018-06-09T12:23:55.659Z,4.57
2018-06-09T12:26:23.881Z,3.80
2018-06-09T12:28:52.110Z,4.03
2018-06-09T12:31:20.308Z,3.40
2018-06-09T12:33:48.468Z,4.97
2018-06-09T12:36:17.009Z,3.87
2018-06-09T12:38:45.192Z,3.77
2018-06-09T12:41:13.404Z,4.40
2018-06-09T12:43:41.624Z,4.00
2018-06-09T12:46:09.867Z,4.33
2018-06-09T12:48:38.548Z,4.07
2018-06-09T12:51:06.679Z,4.47
2018-06-09T12:53:34.904Z,3.53
2018-06-09T12:56:03.134Z,3.80
2018-06-09T12:58:31.365Z,3.77
2018-06-09T13:00:59.950Z,3.87
2018-06-09T13:03:28.115Z,4.13
2018-06-09T13:05:56.337Z,4.00
2018-06-09T13:08:24.527Z,3.80
2018-06-09T13:10:52.695Z,3.33
2018-06-09T13:13:20.937Z,4.37
2018-06-09T13:15:49.181Z,3.37
2018-06-09T13:18:17.358Z,4.30
2018-06-09T13:20:45.921Z,4.80
2018-06-09T13:23:14.164Z,4.40
2018-06-09T13:25:42.413Z,4.30
2018-06-09T13:28:10.673Z,3.70
2018-06-09T13:30:38.977Z,4.67
2018-06-09T13:33:07.243Z,4.20
2018-06-09T13:35:35.467Z,3.90
2018-06-09T13:38:04.033Z,4.10
2018-06-09T13:40:32.217Z,4.07
2018-06-09T13:43:00.444Z,4.20
2018-06-09T13:45:28.659Z,4.93
2018-06-09T13:47:57.283Z,4.13
2018-06-09T13:50:25.520Z,4.23
2018-06-09T13:52:53.748Z,5.03
2018-06-09T13:55:21.927Z,3.47
2018-06-09T13:57:50.123Z,3.50
2018-06-09T14:00:18.660Z,4.23
2018-06-09T14:02:46.936Z,4.80
2018-06-09T14:05:15.077Z,4.20
2018-06-09T14:07:43.612Z,4.30
2018-06-09T14:10:12.284Z,3.80
2018-06-09T14:12:40.553Z,3.40
2018-06-09T14:15:08.780Z,4.20
2018-06-09T14:17:37.160Z,3.60
2018-06-09T14:20:05.474Z,5.07
2018-06-09T14:22:33.718Z,4.10
2018-06-09T14:25:01.938Z,5.67
2018-06-09T14:27:31.089Z,3.90
2018-06-09T14:29:59.337Z,4.03
2018-06-09T14:32:27.569Z,3.13
2018-06-09T14:34:55.742Z,4.30
2018-06-09T14:37:23.969Z,3.30
2018-06-09T14:39:52.135Z,3.50
2018-06-09T14:42:20.365Z,3.60
2018-06-09T14:44:48.617Z,4.43
2018-06-09T14:47:16.807Z,5.20
2018-06-09T14:49:45.020Z,4.60
2018-06-09T14:52:13.223Z,4.40
2018-06-09T14:54:41.515Z,3.20
2018-06-09T14:57:09.742Z,3.77
2018-06-09T14:59:37.988Z,3.50
2018-06-09T15:02:06.199Z,3.47
2018-06-09T15:04:34.370Z,3.10
2018-06-09T15:07:02.876Z,3.13
2018-06-09T15:09:31.113Z,2.97
2018-06-09T15:11:59.325Z,3.73
2018-06-09T15:14:27.600Z,2.83
2018-06-09T15:16:55.922Z,3.80
2018-06-09T15:19:24.144Z,3.80
2018-06-09T15:21:52.414Z,2.90
2018-06-09T15:24:20.703Z,3.73
2018-06-09T15:26:48.930Z,3.23
2018-06-09T15:29:17.372Z,3.10
2018-06-09T15:31:45.612Z,4.10
2018-06-09T15:34:13.791Z,3.53
2018-06-09T15:36:41.977Z,2.70
2018-06-09T15:39:10.272Z,3.13
2018-06-09T15:41:38.518Z,3.40
2018-06-09T15:44:06.817Z,3.60
2018-06-09T15:46:35.330Z,3.47
2018-06-09T15:49:03.583Z,3.33
2018-06-09T15:51:31.832Z,3.70
2018-06-09T15:54:00.044Z,4.60
2018-06-09T15:56:28.282Z,3.77
2018-06-09T15:58:56.481Z,5.10
2018-06-09T16:01:24.680Z,3.70
2018-06-09T16:03:52.884Z,4.93
2018-06-09T16:06:21.504Z,4.17
2018-06-09T16:08:50.082Z,4.30
2018-06-09T16:11:18.543Z,4.43
2018-06-09T16:13:46.739Z,4.43
2018-06-09T16:16:14.947Z,4.20
2018-06-09T16:18:43.134Z,3.67
2018-06-09T16:21:11.369Z,3.97
2018-06-09T16:23:39.592Z,3.70
2018-06-09T16:26:07.884Z,3.63
2018-06-09T16:28:36.089Z,4.37
2018-06-09T16:31:04.337Z,3.60
2018-06-09T16:33:32.890Z,3.80
2018-06-09T16:36:01.113Z,3.70
2018-06-09T16:38:29.366Z,4.00
2018-06-09T16:40:57.603Z,4.40
2018-06-09T16:43:25.825Z,4.73
2018-06-09T16:45:53.992Z,4.00
2018-06-09T16:48:22.210Z,4.60
2018-06-09T16:50:51.072Z,5.20
2018-06-09T16:53:19.306Z,4.80
2018-06-09T16:55:47.549Z,7.10
2018-06-09T16:58:16.126Z,3.93
2018-06-09T17:00:44.708Z,7.13
2018-06-09T17:03:12.939Z,8.37
2018-06-09T17:05:41.176Z,8.40
2018-06-09T17:08:09.491Z,5.70
2018-06-09T17:10:37.704Z,7.30
2018-06-09T17:13:05.917Z,5.80
2018-06-09T17:15:34.099Z,5.80
2018-06-09T17:18:02.669Z,4.70
2018-06-09T17:20:30.864Z,4.40
2018-06-09T17:22:59.083Z,4.40
2018-06-09T17:25:27.317Z,4.57
2018-06-09T17:27:55.550Z,4.83
2018-06-09T17:30:23.737Z,5.53
2018-06-09T17:32:51.972Z,5.77
2018-06-09T17:35:20.170Z,6.20
2018-06-09T17:37:48.437Z,4.90
2018-06-09T17:40:16.717Z,4.87
2018-06-09T17:42:44.939Z,5.47
2018-06-09T17:45:13.145Z,4.83
2018-06-09T17:47:41.370Z,5.10
2018-06-09T17:50:09.598Z,5.20
2018-06-09T17:52:37.824Z,5.80
2018-06-09T17:55:06.192Z,4.40
2018-06-09T17:57:34.330Z,4.30
2018-06-09T18:00:02.589Z,5.13
2018-06-09T18:02:30.864Z,4.60
2018-06-09T18:04:59.130Z,7.07
2018-06-09T18:07:27.385Z,6.60
2018-06-09T18:09:55.565Z,10.00
2018-06-09T18:12:23.765Z,8.00
2018-06-09T18:14:51.928Z,7.07
2018-06-09T18:17:20.258Z,6.53
2018-06-09T18:19:48.789Z,7.53
2018-06-09T18:22:17.054Z,7.17
2018-06-09T18:24:45.363Z,7.00
2018-06-09T18:27:13.568Z,7.40
2018-06-09T18:29:41.835Z,8.53
2018-06-09T18:32:10.040Z,8.80
2018-06-09T18:34:38.321Z,8.77
2018-06-09T18:37:06.573Z,9.40
2018-06-09T18:39:34.811Z,8.27
2018-06-09T18:42:02.987Z,8.17
2018-06-09T18:44:31.241Z,7.97
2018-06-09T18:46:59.796Z,7.93
2018-06-09T18:49:28.349Z,10.10
2018-06-09T18:51:56.541Z,36.67
2018-06-09T18:54:24.739Z,7.77
2018-06-09T18:56:52.970Z,8.70
2018-06-09T18:59:21.430Z,9.00
2018-06-09T19:01:49.709Z,9.77
2018-06-09T19:04:17.925Z,9.00
2018-06-09T19:06:46.122Z,13.70
2018-06-09T19:09:14.356Z,9.40
2018-06-09T19:11:42.868Z,11.53
2018-06-09T19:14:11.076Z,8.70
2018-06-09T19:16:39.346Z,9.57
2018-06-09T19:19:07.490Z,9.53
2018-06-09T19:21:36.155Z,9.20
2018-06-09T19:24:04.404Z,10.00
2018-06-09T19:26:32.640Z,10.20
2018-06-09T19:29:00.808Z,8.67
2018-06-09T19:31:28.960Z,9.43
2018-06-09T19:33:57.189Z,9.17
2018-06-09T19:36:25.436Z,10.13
2018-06-09T19:38:53.608Z,9.60
2018-06-09T19:41:21.846Z,12.50
2018-06-09T19:43:50.022Z,11.13
2018-06-09T19:46:18.205Z,16.10
2018-06-09T19:48:46.449Z,37.40
2018-06-09T19:51:14.701Z,10.40
2018-06-09T19:53:43.013Z,10.07
2018-06-09T19:56:11.417Z,13.53
2018-06-09T19:58:39.874Z,10.30
2018-06-09T20:01:08.163Z,9.53
2018-06-09T20:03:36.346Z,11.90
2018-06-09T20:06:04.598Z,11.90
2018-06-09T20:08:32.852Z,9.37
2018-06-09T20:11:01.036Z,18.70
2018-06-09T20:13:29.255Z,12.87
2018-06-09T20:15:57.715Z,9.57
2018-06-09T20:18:25.953Z,10.27
2018-06-09T20:20:54.171Z,10.70
2018-06-09T20:23:22.432Z,10.67
2018-06-09T20:25:50.782Z,10.03
2018-06-09T20:28:20.424Z,9.43
2018-06-09T20:30:48.735Z,18.53
2018-06-09T20:33:17.436Z,12.77
2018-06-09T20:35:45.769Z,11.97
2018-06-09T20:38:14.233Z,17.53
2018-06-09T20:40:42.598Z,14.17
2018-06-09T20:43:11.678Z,11.17
2018-06-09T20:45:39.838Z,11.37
2018-06-09T20:48:08.160Z,12.47
2018-06-09T20:50:36.748Z,10.87
2018-06-09T20:53:05.414Z,12.17
2018-06-09T20:55:34.210Z,10.50
2018-06-09T20:58:02.541Z,12.00
2018-06-09T21:00:30.858Z,12.63
2018-06-09T21:02:59.102Z,14.17
2018-06-09T21:05:27.337Z,33.77
2018-06-09T21:07:56.191Z,80.83
2018-06-09T21:10:24.440Z,16.07
2018-06-09T21:12:52.699Z,14.43
2018-06-09T21:15:20.971Z,16.00
2018-06-09T21:17:49.242Z,10.60
2018-06-09T21:20:17.476Z,12.10
2018-06-09T21:22:45.685Z,14.20
2018-06-09T21:25:13.944Z,12.83
2018-06-09T21:28:47.303Z,14.10
2018-06-09T21:31:17.535Z,16.07
2018-06-09T21:34:02.563Z,10.80
2018-06-09T21:36:35.345Z,15.47
2018-06-09T21:39:10.585Z,26.37
2018-06-09T21:41:45.231Z,12.43
2018-06-09T21:44:15.002Z,14.50
2018-06-09T21:46:48.654Z,14.20
2018-06-09T21:49:17.589Z,12.70
2018-06-09T21:51:45.809Z,12.53
2018-06-09T21:54:14.076Z,14.37
2018-06-09T21:56:42.339Z,17.47
2018-06-09T21:59:10.542Z,15.53
2018-06-09T22:01:38.812Z,15.33
2018-06-09T22:04:07.033Z,17.77
2018-06-09T22:06:35.232Z,16.87
2018-06-09T22:09:04.296Z,12.97
2018-06-09T22:11:32.534Z,13.17
2018-06-09T22:14:00.793Z,23.03
2018-06-09T22:16:28.965Z,13.80
2018-06-09T22:18:57.141Z,14.37
2018-06-09T22:21:25.338Z,14.77
2018-06-09T22:23:53.628Z,14.80
2018-06-09T22:26:21.825Z,13.40
2018-06-09T22:28:50.076Z,21.00
2018-06-09T22:31:18.301Z,19.90
2018-06-09T22:33:46.480Z,17.47
2018-06-09T22:36:14.739Z,15.53
2018-06-09T22:38:42.913Z,17.00
2018-06-09T22:41:11.221Z,15.87
2018-06-09T22:43:39.477Z,16.20
2018-06-09T22:46:07.735Z,25.57
2018-06-09T22:48:35.959Z,19.57
2018-06-09T22:51:04.181Z,20.00
2018-06-09T22:53:32.798Z,16.07
2018-06-09T22:56:01.002Z,20.20
2018-06-09T22:58:29.307Z,15.03
2018-06-09T23:00:58.843Z,20.73
2018-06-09T23:03:27.077Z,16.03
2018-06-09T23:05:55.364Z,26.20
2018-06-09T23:08:23.546Z,18.70
2018-06-09T23:10:51.821Z,22.53
2018-06-09T23:13:20.053Z,22.10
2018-06-09T23:15:48.311Z,20.00
2018-06-09T23:18:16.526Z,15.80
2018-06-09T23:20:44.700Z,23.33
2018-06-09T23:23:12.929Z,22.70
2018-06-09T23:25:41.192Z,16.97
2018-06-09T23:28:09.590Z,13.40
2018-06-09T23:30:38.228Z,22.03
2018-06-09T23:33:06.501Z,28.20
2018-06-09T23:35:34.733Z,24.73
2018-06-09T23:38:02.964Z,19.93
2018-06-09T23:40:31.241Z,21.27
2018-06-09T23:42:59.473Z,32.50
2018-06-09T23:45:27.690Z,16.90
2018-06-09T23:47:55.892Z,16.30
2018-06-09T23:50:24.102Z,31.73
2018-06-09T23:52:52.314Z,15.00
2018-06-09T23:55:20.628Z,15.80
2018-06-09T23:57:48.925Z,15.03
